Time;durP1;ratioP1;P1;durP2;ratioP2;P2;SDS_P1;SDS_P2;PMS_P1;PMS_P2;Temp;Humidity;BMP_temperature;BMP_pressure;BME280_temperature;BME280_humidity;BME280_pressure;Samples;Min_cycle;Max_cycle;Signal;HPM_P1;HPM_P2
2021/05/13 00:01:54;;;;;;;16.30;12.80;;;;;;;13.60;75.88;93134.44;5133518;27;20035;-73
2021/05/13 00:04:19;;;;;;;19.52;13.25;;;;;;;13.55;76.24;93131.25;5133669;27;20022;-73
2021/05/13 00:06:45;;;;;;;21.48;14.35;;;;;;;13.54;76.37;93143.88;5132005;27;20031;-73
2021/05/13 00:09:10;;;;;;;20.45;14.45;;;;;;;13.54;76.48;93146.56;5133514;27;20023;-73
2021/05/13 00:11:37;;;;;;;16.45;13.52;;;;;;;13.49;76.99;93146.03;5119133;27;20019;-73
2021/05/13 00:14:05;;;;;;;19.70;11.00;;;;;;;13.46;76.37;93144.06;5117281;27;20034;-73
2021/05/13 00:16:33;;;;;;;16.10;10.00;;;;;;;13.39;75.74;93140.13;5126951;27;20033;-73
2021/05/13 00:19:04;;;;;;;11.80;8.95;;;;;;;13.41;75.93;93135.19;5131838;27;20027;-73
2021/05/13 00:21:29;;;;;;;14.35;8.80;;;;;;;13.29;75.38;93140.66;5131768;27;20047;-73
2021/05/13 00:23:54;;;;;;;14.63;8.57;;;;;;;13.28;75.46;93139.06;5131131;27;20046;-73
2021/05/13 00:26:36;;;;;;;15.18;9.23;;;;;;;13.25;75.50;93134.41;5131803;27;20026;-73
2021/05/13 00:29:06;;;;;;;16.90;10.20;;;;;;;13.17;75.40;93132.69;5131775;27;20034;-73
2021/05/13 00:31:32;;;;;;;17.40;10.98;;;;;;;13.09;76.45;93136.28;5131711;27;20154;-73
2021/05/13 00:34:06;;;;;;;18.23;12.07;;;;;;;12.96;76.74;93139.06;5131886;27;20412;-73
2021/05/13 00:36:34;;;;;;;19.85;13.25;;;;;;;12.84;77.23;93139.94;5132865;27;20019;-73
2021/05/13 00:38:59;;;;;;;22.85;13.10;;;;;;;12.75;77.63;93143.88;5133039;27;20066;-73
2021/05/13 00:41:25;;;;;;;22.40;13.90;;;;;;;12.69;78.12;93151.38;5131364;27;20023;-73
2021/05/13 00:43:51;;;;;;;23.95;14.90;;;;;;;12.72;78.24;93148.03;5131777;27;20053;-73
2021/05/13 00:46:17;;;;;;;28.10;15.95;;;;;;;12.79;78.16;93139.41;5148809;27;20035;-73
2021/05/13 00:48:45;;;;;;;25.05;16.08;;;;;;;12.78;77.73;93138.63;5148795;27;20031;-73
2021/05/13 00:51:11;;;;;;;23.20;15.48;;;;;;;12.70;78.16;93147.59;5126964;27;20019;-73
2021/05/13 00:53:38;;;;;;;27.17;17.08;;;;;;;12.72;78.35;93141.88;5110825;28;20065;-73
2021/05/13 00:56:04;;;;;;;31.52;17.35;;;;;;;12.75;78.09;93138.53;5112331;28;20027;-73
2021/05/13 00:58:33;;;;;;;25.98;17.10;;;;;;;12.64;78.56;93144.38;5127996;27;20143;-73
2021/05/13 01:01:05;;;;;;;27.88;17.75;;;;;;;12.57;79.17;93143.41;5124065;27;20023;-73
2021/05/13 01:03:33;;;;;;;31.60;18.35;;;;;;;12.65;79.27;93142.50;5131282;27;20027;-73
2021/05/13 01:05:59;;;;;;;33.90;19.17;;;;;;;12.62;79.11;93141.28;5115438;27;20489;-73
2021/05/13 01:08:24;;;;;;;29.75;19.45;;;;;;;12.59;79.27;93138.50;5132549;27;20053;-73
2021/05/13 01:10:50;;;;;;;33.97;20.98;;;;;;;12.48;79.31;93143.59;5132488;27;20034;-73
2021/05/13 01:13:20;;;;;;;35.67;21.67;;;;;;;12.46;79.79;93137.81;5131191;27;20470;-73
2021/05/13 01:19:08;;;;;;;38.50;22.80;;;;;;;12.47;79.79;93143.91;5125505;27;20084;-73
2021/05/13 01:21:38;;;;;;;37.35;22.63;;;;;;;12.50;79.65;93144.03;5130628;27;20521;-73
2021/05/13 01:24:05;;;;;;;40.92;22.88;;;;;;;12.52;79.87;93146.34;5125225;27;20026;-73
2021/05/13 01:29:55;;;;;;;37.30;22.20;;;;;;;12.42;79.14;93136.94;5123691;28;20046;-73
2021/05/13 01:32:21;;;;;;;37.08;22.00;;;;;;;12.48;79.36;93129.44;5117493;28;20031;-73
2021/05/13 01:34:46;;;;;;;39.50;22.23;;;;;;;12.58;78.78;93128.94;5132294;27;20539;-73
2021/05/13 01:37:12;;;;;;;34.75;21.85;;;;;;;12.67;78.77;93131.47;5134809;27;20491;-73
2021/05/13 01:39:37;;;;;;;33.10;20.38;;;;;;;12.73;78.42;93128.19;5139198;27;20028;-73
2021/05/13 01:42:03;;;;;;;35.50;20.98;;;;;;;12.71;78.17;93135.75;5129940;27;20160;-73
2021/05/13 01:44:28;;;;;;;31.88;20.85;;;;;;;12.65;77.69;93121.09;5134838;27;20372;-73
2021/05/13 01:46:54;;;;;;;34.90;20.67;;;;;;;12.61;77.34;93122.91;5135052;27;20029;-73
2021/05/13 01:49:21;;;;;;;33.05;19.92;;;;;;;12.54;77.31;93118.16;5129456;27;20024;-74
2021/05/13 01:51:47;;;;;;;36.85;21.30;;;;;;;12.56;77.62;93121.28;5114360;28;20122;-74
2021/05/13 01:54:14;;;;;;;33.65;21.02;;;;;;;12.57;77.29;93117.47;5114261;28;20055;-74
2021/05/13 01:56:40;;;;;;;30.42;19.42;;;;;;;12.53;77.29;93126.50;5115469;28;20388;-73
2021/05/13 01:59:05;;;;;;;34.90;20.40;;;;;;;12.52;77.68;93124.97;5114249;28;20026;-74
2021/05/13 02:01:30;;;;;;;28.05;20.25;;;;;;;12.53;77.29;93124.59;5114206;28;20031;-74
2021/05/13 02:03:56;;;;;;;36.20;19.50;;;;;;;12.52;77.14;93114.28;5114258;28;20392;-73
2021/05/13 02:06:21;;;;;;;27.90;19.45;;;;;;;12.45;77.19;93117.53;5113882;28;20015;-74
2021/05/13 02:08:47;;;;;;;30.23;20.13;;;;;;;12.46;77.71;93121.78;5122301;27;20043;-73
2021/05/13 02:11:12;;;;;;;30.17;18.42;;;;;;;12.48;77.57;93124.09;5144472;27;20051;-73
2021/05/13 02:13:38;;;;;;;30.63;18.27;;;;;;;12.49;76.59;93125.66;5134396;27;20031;-73
2021/05/13 02:16:03;;;;;;;27.92;17.95;;;;;;;12.33;77.05;93123.72;5131369;27;20023;-73
2021/05/13 02:18:29;;;;;;;30.75;18.92;;;;;;;12.31;77.27;93119.81;5133260;27;20031;-73
2021/05/13 02:20:55;;;;;;;32.20;17.73;;;;;;;12.34;77.87;93119.16;5132561;27;20054;-73
2021/05/13 02:23:20;;;;;;;27.48;18.20;;;;;;;12.34;77.59;93119.16;5116576;27;20078;-73
2021/05/13 02:25:47;;;;;;;33.50;18.23;;;;;;;12.32;77.42;93126.75;5122215;27;20489;-73
2021/05/13 02:28:13;;;;;;;23.48;15.40;;;;;;;12.32;77.57;93124.06;5123301;27;20031;-73
2021/05/13 02:34:00;;;;;;;27.65;16.58;;;;;;;12.30;77.46;93128.97;5123534;27;20050;-74
2021/05/13 02:36:25;;;;;;;29.63;17.73;;;;;;;12.29;77.55;93112.16;5140297;27;20476;-72
2021/05/13 02:38:51;;;;;;;27.00;16.48;;;;;;;12.30;78.12;93123.63;5130489;27;20418;-72
2021/05/13 02:41:16;;;;;;;34.25;17.73;;;;;;;12.38;77.19;93122.69;5139564;27;20489;-72
2021/05/13 02:43:42;;;;;;;30.88;18.77;;;;;;;12.26;77.37;93117.41;5132925;27;20031;-72
2021/05/13 02:46:07;;;;;;;37.67;23.15;;;;;;;12.33;77.77;93128.28;5127296;27;20474;-72
2021/05/13 02:48:33;;;;;;;34.80;19.15;;;;;;;12.37;77.62;93116.56;5132894;27;20063;-72
2021/05/13 02:50:58;;;;;;;36.75;18.42;;;;;;;12.42;77.35;93126.25;5130327;27;20129;-72
2021/05/13 02:53:24;;;;;;;35.22;19.38;;;;;;;12.39;77.07;93121.56;5133532;27;20031;-72
2021/05/13 02:55:49;;;;;;;29.48;18.15;;;;;;;12.46;76.98;93121.78;5133660;27;20027;-72
2021/05/13 02:58:14;;;;;;;32.67;17.80;;;;;;;12.47;77.26;93115.28;5123234;27;20406;-72
2021/05/13 03:01:05;;;;;;;30.75;18.60;;;;;;;12.47;77.44;93123.31;5133550;27;20061;-72
2021/05/13 03:03:30;;;;;;;30.90;17.88;;;;;;;12.53;77.06;93127.28;5126891;27;20501;-72
2021/05/13 03:05:56;;;;;;;30.35;17.45;;;;;;;12.57;76.66;93122.03;5118563;27;20024;-72
2021/05/13 03:08:21;;;;;;;29.45;17.65;;;;;;;12.66;76.41;93114.66;5127509;27;20050;-72
2021/05/13 03:10:47;;;;;;;33.13;17.40;;;;;;;12.65;76.50;93119.19;5133421;27;20035;-72
2021/05/13 03:13:30;;;;;;;28.33;17.15;;;;;;;12.71;76.36;93118.94;5123410;27;20027;-72
2021/05/13 03:15:56;;;;;;;26.85;16.10;;;;;;;12.74;76.13;93116.38;5127540;27;20518;-72
2021/05/13 03:18:24;;;;;;;30.88;17.67;;;;;;;12.74;76.39;93121.72;5131924;27;20076;-72
2021/05/13 03:20:55;;;;;;;28.63;16.67;;;;;;;12.74;75.78;93131.63;5133035;27;20066;-72
2021/05/13 03:23:27;;;;;;;27.00;15.18;;;;;;;12.72;75.63;93129.31;5133288;27;20039;-73
2021/05/13 03:25:59;;;;;;;27.45;15.60;;;;;;;12.73;75.62;93124.72;5133347;27;20035;-73
2021/05/13 03:28:24;;;;;;;28.83;16.80;;;;;;;12.74;75.67;93112.91;5133325;27;20095;-73
2021/05/13 03:30:50;;;;;;;30.70;16.02;;;;;;;12.75;75.56;93117.16;5134311;27;20031;-74
2021/05/13 03:33:15;;;;;;;27.48;17.02;;;;;;;12.74;75.58;93120.94;5133083;27;20486;-73
2021/05/13 03:35:41;;;;;;;29.20;18.13;;;;;;;12.75;75.66;93117.91;5127192;27;20027;-73
2021/05/13 03:38:08;;;;;;;31.52;17.98;;;;;;;12.75;75.43;93125.16;5140219;27;20022;-73
2021/05/13 03:40:35;;;;;;;34.33;17.80;;;;;;;12.69;75.57;93113.16;5134467;27;20063;-74
2021/05/13 03:43:01;;;;;;;29.10;17.10;;;;;;;12.65;75.78;93119.19;5121753;27;20051;-73
2021/05/13 03:45:27;;;;;;;26.13;15.93;;;;;;;12.62;76.10;93125.25;5132962;27;20509;-74
2021/05/13 03:47:53;;;;;;;25.55;15.77;;;;;;;12.52;76.25;93117.72;5132568;27;20042;-73
2021/05/13 03:50:18;;;;;;;28.75;16.42;;;;;;;12.46;76.86;93121.78;5132682;27;20030;-74
2021/05/13 03:52:45;;;;;;;34.05;17.90;;;;;;;12.43;77.79;93127.78;5132632;27;20024;-73
2021/05/13 03:55:11;;;;;;;32.25;17.65;;;;;;;12.49;77.28;93128.31;5133862;27;20496;-73
2021/05/13 03:57:38;;;;;;;28.45;16.60;;;;;;;12.54;77.37;93139.53;5132489;27;20471;-73
2021/05/13 04:00:08;;;;;;;27.77;17.42;;;;;;;12.63;76.75;93134.03;5133431;27;20023;-73
2021/05/13 04:02:34;;;;;;;23.65;14.75;;;;;;;12.63;75.93;93134.81;5132415;27;20030;-73
2021/05/13 04:05:00;;;;;;;31.88;17.80;;;;;;;12.64;75.47;93138.28;5132351;27;20027;-73
2021/05/13 04:07:31;;;;;;;29.70;16.40;;;;;;;12.65;75.58;93135.22;5132036;27;20059;-73
2021/05/13 04:09:57;;;;;;;28.35;17.70;;;;;;;12.71;75.46;93124.31;5125567;27;20119;-73
2021/05/13 04:12:23;;;;;;;25.45;14.70;;;;;;;12.83;74.86;93114.28;5126007;27;20023;-74
2021/05/13 04:14:50;;;;;;;28.58;15.65;;;;;;;12.95;74.68;93112.66;5133833;27;20482;-73
2021/05/13 04:17:16;;;;;;;27.05;16.05;;;;;;;13.00;75.10;93123.88;5144713;27;20099;-73
2021/05/13 04:19:42;;;;;;;22.23;15.82;;;;;;;13.07;75.04;93125.16;5112796;28;20054;-73
2021/05/13 04:22:07;;;;;;;26.50;15.90;;;;;;;13.15;74.13;93122.31;5112817;28;20030;-73
2021/05/13 04:24:33;;;;;;;21.05;15.23;;;;;;;13.20;73.06;93115.91;5113323;28;20011;-73
2021/05/13 04:26:58;;;;;;;24.98;14.57;;;;;;;13.26;72.46;93119.88;5112625;28;20032;-74
2021/05/13 04:29:24;;;;;;;21.33;15.15;;;;;;;13.31;72.84;93121.53;5112755;28;20535;-73
2021/05/13 04:31:49;;;;;;;22.38;14.63;;;;;;;13.37;72.11;93123.63;5113979;27;20402;-72
2021/05/13 04:34:15;;;;;;;21.45;13.65;;;;;;;13.44;71.81;93123.78;5131571;27;20034;-72
2021/05/13 04:36:40;;;;;;;23.50;15.35;;;;;;;13.51;71.64;93130.41;5133113;27;20034;-74
2021/05/13 04:39:06;;;;;;;23.23;15.50;;;;;;;13.57;71.51;93126.34;5132609;27;20027;-74
2021/05/13 04:41:33;;;;;;;26.58;15.15;;;;;;;13.71;71.75;93132.00;5112192;27;20023;-74
2021/05/13 04:44:00;;;;;;;28.58;16.30;;;;;;;13.80;71.75;93127.22;5130763;27;20034;-73
2021/05/13 04:46:28;;;;;;;30.95;16.63;;;;;;;13.94;70.84;93128.63;5112259;28;20027;-73
2021/05/13 04:51:28;;;;;;;27.88;16.98;;;;;;;14.10;70.07;93113.28;5132487;27;20511;-72
2021/05/13 04:53:54;;;;;;;27.15;15.88;;;;;;;14.15;70.01;93118.38;5131334;27;20046;-71
2021/05/13 04:56:21;;;;;;;22.77;15.65;;;;;;;14.24;69.41;93120.81;5126619;27;20027;-72
2021/05/13 04:58:47;;;;;;;27.55;16.45;;;;;;;14.23;68.51;93117.38;5128905;27;20057;-72
2021/05/13 05:01:12;;;;;;;24.90;16.38;;;;;;;14.28;68.27;93127.03;5120160;27;20046;-72
2021/05/13 05:03:38;;;;;;;23.55;15.65;;;;;;;14.33;67.97;93126.75;5117981;27;20498;-72
2021/05/13 05:06:04;;;;;;;22.45;15.45;;;;;;;14.30;67.54;93119.41;5129604;27;20019;-72
2021/05/13 05:08:30;;;;;;;26.45;14.48;;;;;;;14.36;67.64;93125.25;5130954;27;20038;-72
2021/05/13 05:10:55;;;;;;;24.65;15.82;;;;;;;14.34;67.08;93120.25;5131606;27;20031;-72
2021/05/13 05:13:21;;;;;;;24.48;15.70;;;;;;;14.43;66.84;93115.47;5130451;27;20027;-72
2021/05/13 05:15:46;;;;;;;29.05;15.32;;;;;;;14.45;67.07;93123.16;5130924;27;20494;-72
2021/05/13 05:18:19;;;;;;;25.30;16.90;;;;;;;14.46;67.31;93119.31;5131164;27;20499;-72
2021/05/13 05:20:45;;;;;;;26.52;16.70;;;;;;;14.49;67.21;93131.25;5131621;27;20043;-73
2021/05/13 05:23:11;;;;;;;25.85;15.73;;;;;;;14.46;67.38;93122.00;5111745;28;20042;-73
2021/05/13 05:25:38;;;;;;;27.13;16.48;;;;;;;14.48;67.23;93127.78;5117074;27;20118;-73
2021/05/13 05:28:04;;;;;;;22.85;16.15;;;;;;;14.51;68.10;93127.09;5127035;27;20023;-73
2021/05/13 05:30:33;;;;;;;26.83;15.88;;;;;;;14.53;67.60;93127.50;5128756;27;20076;-74
2021/05/13 05:33:08;;;;;;;30.27;17.65;;;;;;;14.58;67.19;93132.59;5129535;27;20019;-73
2021/05/13 05:35:34;;;;;;;29.50;18.00;;;;;;;14.62;67.11;93127.31;5129486;27;20058;-73
2021/05/13 05:38:00;;;;;;;43.50;18.10;;;;;;;14.74;66.74;93129.06;5128665;27;20015;-73
2021/05/13 05:40:26;;;;;;;29.60;15.20;;;;;;;14.87;66.08;93133.09;5126179;28;20053;-73
2021/05/13 05:42:52;;;;;;;34.35;16.95;;;;;;;14.99;65.58;93135.59;5129277;27;20030;-74
2021/05/13 05:45:20;;;;;;;22.92;14.65;;;;;;;15.09;65.35;93131.56;5142023;27;20034;-74
2021/05/13 05:47:47;;;;;;;28.50;17.33;;;;;;;15.19;65.21;93139.00;5146113;27;20118;-74
2021/05/13 05:50:13;;;;;;;27.75;15.98;;;;;;;15.23;65.16;93139.06;5122495;28;20037;-73
2021/05/13 05:52:39;;;;;;;25.10;17.25;;;;;;;15.22;65.08;93138.31;5113589;28;20023;-73
2021/05/13 05:55:06;;;;;;;34.72;19.67;;;;;;;15.22;65.51;93142.88;5110243;28;20530;-73
2021/05/13 05:57:32;;;;;;;26.65;16.80;;;;;;;15.22;65.53;93140.97;5126138;28;20024;-73
2021/05/13 05:59:58;;;;;;;23.40;15.98;;;;;;;15.14;63.53;93135.84;5126524;28;20035;-73
2021/05/13 06:02:26;;;;;;;29.27;18.08;;;;;;;15.00;65.18;93134.50;5109651;28;20062;-74
2021/05/13 06:04:52;;;;;;;24.60;15.93;;;;;;;14.96;65.15;93141.69;5109879;28;20028;-73
2021/05/13 06:07:19;;;;;;;26.88;15.63;;;;;;;14.93;65.02;93134.34;5109766;28;20031;-73
2021/05/13 06:09:44;;;;;;;28.45;16.95;;;;;;;14.92;65.13;93140.88;5125166;27;20470;-74
2021/05/13 06:12:11;;;;;;;26.27;15.45;;;;;;;14.92;64.36;93132.81;5128049;27;20042;-75
2021/05/13 06:14:36;;;;;;;26.77;15.73;;;;;;;14.96;63.77;93139.03;5145790;27;20081;-75
2021/05/13 06:17:02;;;;;;;28.65;16.80;;;;;;;15.02;63.92;93134.91;5129776;27;20023;-75
2021/05/13 06:19:28;;;;;;;30.25;17.13;;;;;;;15.06;64.37;93134.94;5129693;27;20031;-76
2021/05/13 06:21:53;;;;;;;28.90;15.23;;;;;;;15.00;65.14;93133.69;5127486;27;20019;-74
2021/05/13 06:24:18;;;;;;;27.75;14.57;;;;;;;14.96;65.00;93136.34;5129091;27;20039;-74
2021/05/13 06:26:54;;;;;;;24.92;14.93;;;;;;;14.99;65.47;93140.22;5128289;27;20031;-75
2021/05/13 06:29:19;;;;;;;21.17;13.43;;;;;;;14.95;63.56;93129.41;5131151;27;20042;-75
2021/05/13 06:31:45;;;;;;;27.65;16.30;;;;;;;14.98;64.30;93127.91;5117620;27;20471;-76
2021/05/13 06:34:10;;;;;;;23.13;15.18;;;;;;;14.98;64.63;93128.69;5112713;28;20020;-75
2021/05/13 06:36:38;;;;;;;24.58;14.25;;;;;;;14.95;64.06;93129.41;5128717;27;20036;-77
2021/05/13 06:39:04;;;;;;;33.30;16.02;;;;;;;14.92;64.15;93124.78;5133100;27;20027;-75
2021/05/13 06:41:30;;;;;;;24.90;15.38;;;;;;;14.92;64.92;93135.50;5129318;27;20099;-76
2021/05/13 06:43:56;;;;;;;22.33;14.25;;;;;;;14.94;65.01;93124.38;5127390;27;20031;-78
2021/05/13 06:46:22;;;;;;;20.02;13.77;;;;;;;14.94;64.41;93122.50;5130251;27;20027;-78
2021/05/13 06:48:48;;;;;;;22.70;14.35;;;;;;;14.90;64.88;93137.75;5137547;27;20066;-81
2021/05/13 06:51:15;;;;;;;36.40;16.55;;;;;;;14.84;65.42;93139.19;5138479;27;20043;-77
2021/05/13 06:53:41;;;;;;;24.85;16.77;;;;;;;14.74;66.51;93142.47;5129100;27;20123;-76
2021/05/13 06:56:06;;;;;;;27.50;16.90;;;;;;;14.77;66.46;93139.81;5142038;27;20062;-76
2021/05/13 06:58:32;;;;;;;34.90;18.90;;;;;;;14.79;66.65;93142.94;5130376;27;20421;-78
2021/05/13 07:00:58;;;;;;;44.10;18.83;;;;;;;14.84;67.47;93139.97;5129029;27;20030;-78
2021/05/13 07:03:23;;;;;;;28.85;20.08;;;;;;;14.84;67.00;93142.66;5129278;27;20394;-78
2021/05/13 07:05:49;;;;;;;37.17;20.33;;;;;;;14.82;67.50;93130.72;5128668;27;20502;-76
2021/05/13 07:08:14;;;;;;;29.88;19.50;;;;;;;14.79;67.42;93134.09;5112152;28;20456;-75
2021/05/13 07:10:40;;;;;;;35.17;20.60;;;;;;;14.80;67.98;93138.34;5127482;27;20430;-76
2021/05/13 07:13:05;;;;;;;41.60;21.10;;;;;;;14.74;67.44;93132.50;5128411;27;20023;-75
2021/05/13 07:15:32;;;;;;;41.95;22.30;;;;;;;14.86;68.20;93126.19;5126305;27;20347;-75
2021/05/13 07:17:58;;;;;;;33.38;19.70;;;;;;;14.92;67.68;93118.59;5130981;27;20015;-77
2021/05/13 07:20:24;;;;;;;34.30;19.50;;;;;;;15.00;67.15;93126.44;5138494;27;20077;-81
2021/05/13 07:22:51;;;;;;;34.97;19.92;;;;;;;15.13;66.86;93108.22;5129503;27;20039;-80
2021/05/13 07:25:17;;;;;;;27.85;16.77;;;;;;;15.27;65.40;93115.75;5123148;27;20036;-78
2021/05/13 07:27:44;;;;;;;31.73;17.40;;;;;;;15.33;64.12;93116.22;5143661;27;20395;-78
2021/05/13 07:30:11;;;;;;;31.60;17.83;;;;;;;15.49;64.68;93111.47;5132468;27;20118;-82
2021/05/13 07:32:36;;;;;;;27.33;16.30;;;;;;;15.66;65.17;93120.91;5130662;27;20115;-79
2021/05/13 07:35:02;;;;;;;31.27;17.23;;;;;;;15.84;64.92;93111.19;5129017;27;20423;-79
2021/05/13 07:37:27;;;;;;;26.00;16.08;;;;;;;16.00;64.35;93097.59;5127762;27;20448;-77
2021/05/13 07:39:53;;;;;;;32.13;18.10;;;;;;;16.18;63.07;93105.88;5127378;27;20087;-78
2021/05/13 07:42:18;;;;;;;28.15;18.05;;;;;;;16.33;62.47;93101.41;5127358;27;20027;-77
2021/05/13 07:44:44;;;;;;;31.33;18.83;;;;;;;16.48;62.70;93098.88;5128279;27;20023;-79
2021/05/13 07:47:10;;;;;;;28.40;18.15;;;;;;;16.63;62.46;93103.28;5129492;27;20448;-79
2021/05/13 07:49:36;;;;;;;27.60;17.33;;;;;;;16.80;62.04;93101.91;5142491;27;20027;-77
2021/05/13 07:52:01;;;;;;;29.42;18.38;;;;;;;16.86;60.38;93092.38;5128196;27;20050;-80
2021/05/13 07:54:28;;;;;;;31.90;17.85;;;;;;;16.85;60.61;93093.50;5130290;27;20392;-79
2021/05/13 07:56:54;;;;;;;33.17;19.45;;;;;;;16.94;60.93;93098.59;5117092;27;20505;-80
2021/05/13 07:59:19;;;;;;;34.80;20.35;;;;;;;17.01;61.04;93093.25;5129721;27;20027;-81
2021/05/13 08:01:45;;;;;;;32.45;18.98;;;;;;;17.23;60.93;93088.81;5148095;27;20035;-78
2021/05/13 08:04:10;;;;;;;41.40;20.27;;;;;;;17.35;60.01;93093.91;5145043;27;20023;-79
2021/05/13 08:06:39;;;;;;;32.70;19.42;;;;;;;17.45;59.73;93097.84;5127114;27;20099;-77
2021/05/13 08:09:05;;;;;;;44.50;19.85;;;;;;;17.55;59.10;93086.34;5127985;27;20513;-81
2021/05/13 08:11:30;;;;;;;30.13;18.30;;;;;;;17.69;59.27;93087.56;5133151;27;20031;-80
2021/05/13 08:13:56;;;;;;;31.80;17.88;;;;;;;17.73;58.67;93083.78;5138884;27;20402;-77
2021/05/13 08:16:22;;;;;;;28.63;18.80;;;;;;;17.80;57.35;93075.72;5124207;27;20417;-78
2021/05/13 08:18:47;;;;;;;35.83;19.90;;;;;;;17.69;56.59;93084.88;5130214;27;20428;-81
2021/05/13 08:21:12;;;;;;;33.15;19.35;;;;;;;17.53;57.69;93083.25;5127619;27;20490;-79
2021/05/13 08:23:38;;;;;;;28.98;19.17;;;;;;;17.59;57.54;93087.16;5129248;27;20039;-77
2021/05/13 08:26:03;;;;;;;27.23;17.95;;;;;;;17.54;57.83;93084.03;5147384;27;20132;-79
2021/05/13 08:28:29;;;;;;;28.67;18.65;;;;;;;17.62;58.08;93081.00;5129843;27;20031;-79
2021/05/13 08:30:54;;;;;;;32.95;18.20;;;;;;;17.71;58.09;93080.69;5147286;27;20027;-81
2021/05/13 08:33:20;;;;;;;29.40;17.60;;;;;;;17.83;57.60;93069.59;5147101;27;20546;-78
2021/05/13 08:35:45;;;;;;;29.95;17.13;;;;;;;17.95;57.23;93067.72;5128646;27;20132;-79
2021/05/13 08:38:11;;;;;;;28.95;18.35;;;;;;;18.07;56.59;93061.22;5110494;28;20035;-81
2021/05/13 08:40:36;;;;;;;31.90;18.17;;;;;;;18.17;56.54;93058.56;5131951;27;20053;-80
2021/05/13 08:43:02;;;;;;;31.45;18.85;;;;;;;18.34;56.15;93059.00;5110344;28;20035;-79
2021/05/13 08:45:28;;;;;;;37.20;18.17;;;;;;;18.51;55.19;93063.69;5124333;27;20034;-77
2021/05/13 08:47:53;;;;;;;30.20;16.50;;;;;;;18.71;55.09;93057.94;5129940;27;20045;-76
2021/05/13 08:50:19;;;;;;;25.27;16.02;;;;;;;18.87;54.34;93052.97;5129748;27;20027;-80
2021/05/13 08:52:45;;;;;;;35.20;17.45;;;;;;;18.90;52.46;93062.22;5127212;27;20031;-80
2021/05/13 08:55:12;;;;;;;26.10;17.45;;;;;;;19.07;53.41;93057.97;5125901;27;20388;-81
2021/05/13 08:57:38;;;;;;;30.45;16.55;;;;;;;19.25;52.84;93056.03;5113776;27;20122;-80
2021/05/13 09:00:06;;;;;;;28.30;15.88;;;;;;;19.39;52.65;93061.44;5123852;27;20156;-79
2021/05/13 09:02:33;;;;;;;24.15;14.90;;;;;;;19.55;51.92;93061.03;5126750;27;20033;-80
2021/05/13 09:05:00;;;;;;;21.35;15.13;;;;;;;19.71;51.23;93055.22;5123407;27;20034;-81
2021/05/13 09:07:30;;;;;;;23.73;14.82;;;;;;;19.71;49.10;93055.22;5113553;27;20430;-80
2021/05/13 09:10:08;;;;;;;33.47;13.98;;;;;;;19.77;47.87;93042.84;5124542;27;20027;-80
2021/05/13 09:12:40;;;;;;;26.55;13.55;;;;;;;19.93;47.93;93050.53;5128090;27;20130;-80
2021/05/13 09:15:10;;;;;;;;;;;;;;;20.11;47.68;93039.66;5131735;27;20036;-80
2021/05/13 09:17:37;;;;;;;33.00;14.23;;;;;;;20.20;48.47;93037.28;5118454;27;20010;-80
2021/05/13 09:20:04;;;;;;;25.88;13.43;;;;;;;20.30;48.27;93034.94;5121788;27;20522;-80
2021/05/13 09:22:30;;;;;;;27.10;12.63;;;;;;;20.47;48.02;93038.69;5126116;27;20027;-80
2021/05/13 09:25:07;;;;;;;21.20;12.73;;;;;;;20.57;46.69;93033.22;5119073;27;20414;-81
2021/05/13 09:27:46;;;;;;;19.20;11.55;;;;;;;20.67;46.70;93025.47;5125783;27;20114;-81
2021/05/13 09:30:23;;;;;;;20.42;12.05;;;;;;;20.78;45.54;93036.97;5125865;27;20027;-80
2021/05/13 09:32:54;;;;;;;25.90;12.60;;;;;;;20.79;43.09;93033.13;5137813;27;20019;-80
2021/05/13 09:35:22;;;;;;;18.52;12.07;;;;;;;20.81;43.93;93019.94;5121863;27;20403;-80
2021/05/13 09:37:55;;;;;;;23.20;12.55;;;;;;;20.75;45.12;93011.47;5146582;27;20111;-81
2021/05/13 09:40:34;;;;;;;24.17;13.07;;;;;;;20.74;44.28;93019.97;5146281;27;20115;-80
2021/05/13 09:43:32;;;;;;;19.70;12.02;;;;;;;20.74;43.11;93015.34;5125246;27;20030;-80
2021/05/13 09:45:59;;;;;;;21.85;10.80;;;;;;;20.63;43.18;93012.72;5083361;28;20387;-81
2021/05/13 09:48:38;;;;;;;18.85;11.77;;;;;;;20.42;44.67;93012.81;5128568;27;20024;-82
2021/05/13 09:51:27;;;;;;;15.75;10.38;;;;;;;20.46;45.05;93013.56;5138290;27;20508;-82
2021/05/13 09:54:15;;;;;;;17.98;11.18;;;;;;;20.56;42.45;93006.56;5126788;27;20027;-80
2021/05/13 09:56:52;;;;;;;18.83;10.35;;;;;;;20.60;42.95;93008.09;5126932;27;20024;-79
2021/05/13 09:59:25;;;;;;;14.95;9.60;;;;;;;20.67;44.34;93006.50;5129820;27;20027;-80
2021/05/13 10:01:56;;;;;;;15.65;9.15;;;;;;;20.81;43.72;92998.28;5116406;27;20024;-79
2021/05/13 10:04:21;;;;;;;13.45;8.63;;;;;;;20.84;40.87;93000.19;5131712;27;20029;-79
2021/05/13 10:06:47;;;;;;;16.92;9.02;;;;;;;20.74;40.55;92993.69;5123988;27;20019;-80
2021/05/13 10:09:14;;;;;;;18.17;8.35;;;;;;;20.68;41.32;92998.00;5132316;27;20031;-79
2021/05/13 10:11:43;;;;;;;21.55;9.63;;;;;;;20.67;40.34;92992.97;5136825;27;20690;-77
2021/05/13 10:14:09;;;;;;;16.58;8.50;;;;;;;20.52;41.64;92995.00;5132644;27;20058;-78
2021/05/13 10:16:35;;;;;;;20.42;8.70;;;;;;;20.22;42.39;92986.25;5131181;27;20038;-78
2021/05/13 10:19:06;;;;;;;17.75;7.88;;;;;;;20.22;41.20;92980.84;5114398;27;20027;-79
2021/05/13 10:21:33;;;;;;;11.73;8.27;;;;;;;20.29;40.96;92987.38;5132920;27;20130;-77
2021/05/13 10:23:59;;;;;;;11.52;8.40;;;;;;;20.30;41.66;92983.53;5132290;27;20114;-81
2021/05/13 10:26:35;;;;;;;15.23;8.50;;;;;;;20.48;42.50;92981.47;5130182;27;20069;-77
2021/05/13 10:29:26;;;;;;;17.33;9.23;;;;;;;20.67;42.52;92984.84;5124907;27;20034;-80
2021/05/13 10:32:00;;;;;;;14.68;9.82;;;;;;;20.92;42.72;92977.28;5119438;27;20031;-79
2021/05/13 10:34:41;;;;;;;17.92;9.25;;;;;;;21.11;41.74;92986.06;5131312;27;20023;-77
2021/05/13 10:37:10;;;;;;;16.77;8.82;;;;;;;21.31;41.54;92987.03;5133577;27;20490;-78
2021/05/13 10:39:36;;;;;;;18.48;9.25;;;;;;;21.46;40.62;92973.34;5130633;27;20023;-76
2021/05/13 10:42:31;;;;;;;17.52;7.60;;;;;;;21.63;39.88;92967.72;5128860;27;20034;-78
2021/05/13 10:44:57;;;;;;;18.35;7.88;;;;;;;21.70;37.89;92974.25;5132023;27;20027;-80
2021/05/13 10:47:29;;;;;;;18.35;7.97;;;;;;;;;;5132039;27;20037;-76
2021/05/13 10:49:55;;;;;;;13.55;7.32;;;;;;;21.98;37.59;92983.97;5114040;27;20027;-78
2021/05/13 10:52:40;;;;;;;24.83;7.13;;;;;;;22.14;37.30;92986.13;5121257;27;20084;-80
2021/05/13 10:55:09;;;;;;;12.18;6.30;;;;;;;22.34;37.28;92978.13;5145639;27;20030;-77
2021/05/13 10:57:49;;;;;;;16.98;6.90;;;;;;;22.47;37.28;92979.13;5132187;27;20015;-80
2021/05/13 11:00:17;;;;;;;14.30;6.32;;;;;;;22.62;37.36;92969.56;5125613;27;20023;-80
2021/05/13 11:02:48;;;;;;;13.25;7.05;;;;;;;22.72;36.40;92983.41;5130472;27;20027;-80
2021/05/13 11:05:29;;;;;;;21.20;9.30;;;;;;;22.77;36.23;92980.22;5133083;27;20027;-77
2021/05/13 11:07:56;;;;;;;17.10;6.35;;;;;;;22.77;36.88;92978.25;5117914;27;20034;-80
2021/05/13 11:10:54;;;;;;;10.57;6.25;;;;;;;22.76;36.18;92982.16;5131421;27;20555;-80
2021/05/13 11:13:20;;;;;;;15.43;8.07;;;;;;;22.83;36.68;92981.28;5131674;27;20031;-80
2021/05/13 11:15:49;;;;;;;12.55;6.95;;;;;;;22.89;36.44;92978.88;5131606;27;20023;-80
2021/05/13 11:18:17;;;;;;;15.50;7.28;;;;;;;22.88;36.43;92972.69;5131768;27;20023;-80
2021/05/13 11:20:46;;;;;;;14.50;8.02;;;;;;;22.84;36.54;92969.25;5117839;27;20054;-80
2021/05/13 11:23:15;;;;;;;17.50;7.60;;;;;;;22.81;36.70;92962.69;5131307;27;20034;-80
2021/05/13 11:25:47;;;;;;;19.05;7.30;;;;;;;22.95;36.77;92967.13;5131583;27;20559;-82
2021/05/13 11:28:21;;;;;;;12.30;7.32;;;;;;;23.09;37.18;92957.22;5131867;27;20046;-83
2021/05/13 11:30:48;;;;;;;14.30;6.68;;;;;;;23.26;34.93;92958.09;5128253;27;20031;-83
2021/05/13 11:33:14;;;;;;;8.55;3.35;;;;;;;23.31;31.36;92949.47;5119285;27;20029;-83
2021/05/13 11:35:40;;;;;;;5.82;2.92;;;;;;;23.39;29.85;92951.66;5129939;27;20427;-83